createdAt,value
2017-11-06T00:02:26.511Z,15.50
2017-11-06T00:04:53.928Z,13.77
2017-11-06T00:07:21.757Z,15.60
2017-11-06T00:09:50.715Z,13.27
2017-11-06T00:12:18.704Z,12.77
2017-11-06T00:14:46.585Z,13.05
2017-11-06T00:17:14.850Z,15.23
2017-11-06T00:19:42.325Z,13.73
2017-11-06T00:22:09.847Z,14.25
2017-11-06T00:24:37.020Z,15.07
2017-11-06T00:27:04.406Z,16.00
2017-11-06T00:29:31.840Z,15.00
2017-11-06T00:31:59.237Z,15.68
2017-11-06T00:34:26.537Z,17.23
2017-11-06T00:36:53.832Z,12.77
2017-11-06T00:39:21.421Z,14.10
2017-11-06T00:41:49.427Z,15.18
2017-11-06T00:44:16.861Z,14.27
2017-11-06T00:46:44.118Z,12.50
2017-11-06T00:49:12.395Z,15.48
2017-11-06T00:51:39.700Z,13.30
2017-11-06T00:54:07.953Z,13.03
2017-11-06T00:56:35.427Z,13.93
2017-11-06T00:59:03.733Z,13.80
2017-11-06T01:01:31.073Z,16.23
2017-11-06T01:03:59.042Z,12.73
2017-11-06T01:06:26.291Z,13.10
2017-11-06T01:08:54.705Z,14.55
2017-11-06T01:11:23.921Z,13.32
2017-11-06T01:13:53.332Z,12.88
2017-11-06T01:16:21.234Z,13.50
2017-11-06T01:18:49.402Z,13.73
2017-11-06T01:21:19.584Z,12.05
2017-11-06T01:23:48.183Z,14.13
2017-11-06T01:26:15.695Z,15.50
2017-11-06T01:28:43.515Z,14.87
2017-11-06T01:31:11.807Z,16.90
2017-11-06T01:33:39.297Z,12.23
2017-11-06T01:36:07.368Z,12.43
2017-11-06T01:38:35.376Z,12.88
2017-11-06T01:41:03.309Z,11.98
2017-11-06T01:43:31.667Z,13.80
2017-11-06T01:45:59.926Z,12.37
2017-11-06T01:48:28.225Z,16.65
2017-11-06T01:50:56.481Z,16.58
2017-11-06T01:53:24.748Z,14.30
2017-11-06T01:55:53.084Z,13.73
2017-11-06T01:58:21.322Z,13.00
2017-11-06T02:00:49.670Z,14.27
2017-11-06T02:03:18.081Z,15.27
2017-11-06T02:05:46.125Z,13.98
2017-11-06T02:08:14.088Z,12.57
2017-11-06T02:10:42.683Z,14.40
2017-11-06T02:13:10.954Z,12.02
2017-11-06T02:15:39.470Z,11.85
2017-11-06T02:18:08.144Z,12.27
2017-11-06T02:20:36.762Z,15.07
2017-11-06T02:23:04.479Z,12.15
2017-11-06T02:25:32.766Z,11.43
2017-11-06T02:28:00.464Z,11.48
2017-11-06T02:30:30.960Z,12.43
2017-11-06T02:32:59.639Z,13.27
2017-11-06T02:35:27.479Z,13.10
2017-11-06T02:37:55.180Z,15.05
2017-11-06T02:40:22.996Z,14.20
2017-11-06T02:42:51.812Z,13.18
2017-11-06T02:45:19.306Z,12.15
2017-11-06T02:47:46.740Z,14.15
2017-11-06T02:50:14.172Z,11.02
2017-11-06T02:52:41.575Z,12.32
2017-11-06T02:55:08.873Z,11.25
2017-11-06T02:57:36.672Z,11.00
2017-11-06T03:00:04.779Z,11.52
2017-11-06T03:02:33.062Z,11.88
2017-11-06T03:05:00.532Z,8.73
2017-11-06T03:07:27.938Z,10.13
2017-11-06T03:09:55.438Z,13.45
2017-11-06T03:12:22.808Z,9.60
2017-11-06T03:14:51.046Z,9.40
2017-11-06T03:17:18.544Z,9.05
2017-11-06T03:19:45.821Z,11.07
2017-11-06T03:22:13.518Z,10.65
2017-11-06T03:24:41.004Z,11.30
2017-11-06T03:27:08.624Z,13.43
2017-11-06T03:29:35.938Z,16.23
2017-11-06T03:32:03.523Z,13.25
2017-11-06T03:34:31.056Z,13.55
2017-11-06T03:36:58.474Z,16.17
2017-11-06T03:39:25.628Z,17.12
2017-11-06T03:41:53.682Z,17.92
2017-11-06T03:44:22.323Z,16.77
2017-11-06T03:46:51.321Z,15.55
2017-11-06T03:49:19.174Z,15.45
2017-11-06T03:51:47.210Z,16.40
2017-11-06T03:54:16.213Z,16.05
2017-11-06T03:56:44.805Z,16.67
2017-11-06T03:59:13.106Z,15.90
2017-11-06T04:01:41.049Z,16.85
2017-11-06T04:04:09.962Z,16.50
2017-11-06T04:06:38.747Z,16.40
2017-11-06T04:09:07.452Z,16.52
2017-11-06T04:11:35.653Z,15.65
2017-11-06T04:14:03.803Z,15.52
2017-11-06T04:16:32.276Z,16.73
2017-11-06T04:19:01.023Z,15.45
2017-11-06T04:21:29.795Z,16.48
2017-11-06T04:23:57.318Z,18.00
2017-11-06T04:26:24.755Z,17.10
2017-11-06T04:28:53.156Z,19.45
2017-11-06T04:31:20.668Z,15.15
2017-11-06T04:33:48.348Z,17.73
2017-11-06T04:36:16.042Z,14.20
2017-11-06T04:38:43.759Z,14.25
2017-11-06T04:41:12.057Z,14.35
2017-11-06T04:43:39.413Z,15.65
2017-11-06T04:46:07.299Z,12.98
2017-11-06T04:48:34.765Z,17.00
2017-11-06T04:51:02.776Z,14.93
2017-11-06T04:53:30.417Z,17.62
2017-11-06T04:55:57.566Z,14.10
2017-11-06T04:58:24.980Z,20.48
2017-11-06T05:00:52.460Z,15.25
2017-11-06T05:03:19.919Z,16.70
2017-11-06T05:05:48.159Z,15.85
2017-11-06T05:08:16.108Z,14.95
2017-11-06T05:10:44.548Z,14.05
2017-11-06T05:13:12.052Z,15.38
2017-11-06T05:15:40.247Z,19.77
2017-11-06T05:18:07.563Z,18.27
2017-11-06T05:20:35.195Z,22.65
2017-11-06T05:23:14.658Z,18.52
2017-11-06T05:25:46.079Z,15.13
2017-11-06T05:28:17.594Z,15.82
2017-11-06T05:30:47.373Z,16.65
2017-11-06T05:33:16.714Z,18.10
2017-11-06T05:35:44.709Z,18.25
2017-11-06T05:38:12.076Z,16.00
2017-11-06T05:40:42.170Z,16.83
2017-11-06T05:43:11.900Z,21.98
2017-11-06T05:45:40.707Z,16.98
2017-11-06T05:48:08.979Z,17.95
2017-11-06T05:50:37.464Z,17.17
2017-11-06T05:53:06.418Z,13.30
2017-11-06T05:55:34.335Z,12.68
2017-11-06T05:58:03.041Z,12.15
2017-11-06T06:00:31.150Z,15.30
2017-11-06T06:03:00.861Z,14.23
2017-11-06T06:05:30.378Z,18.35
2017-11-06T06:07:58.629Z,16.12
2017-11-06T06:10:28.174Z,15.57
2017-11-06T06:12:55.440Z,15.63
2017-11-06T06:15:24.300Z,13.38
2017-11-06T06:17:57.996Z,16.50
2017-11-06T06:20:26.766Z,13.20
2017-11-06T06:22:54.074Z,12.95
2017-11-06T06:25:21.447Z,13.73
2017-11-06T06:27:48.750Z,11.18
2017-11-06T06:30:16.155Z,10.55
2017-11-06T06:32:43.790Z,12.60
2017-11-06T06:35:11.705Z,15.93
2017-11-06T06:37:39.658Z,12.85
2017-11-06T06:40:06.995Z,10.70
2017-11-06T06:45:08.220Z,13.25
2017-11-06T06:47:36.230Z,12.75
2017-11-06T06:50:04.291Z,13.40
2017-11-06T06:52:32.775Z,15.45
2017-11-06T06:55:00.190Z,14.68
2017-11-06T06:57:27.653Z,14.85
2017-11-06T06:59:55.035Z,14.00
2017-11-06T07:02:24.128Z,11.95
2017-11-06T07:04:52.314Z,11.90
2017-11-06T07:07:19.886Z,13.43
2017-11-06T07:09:47.412Z,13.40
2017-11-06T07:12:15.782Z,12.40
2017-11-06T07:14:43.032Z,11.55
2017-11-06T07:17:10.528Z,13.93
2017-11-06T07:19:38.914Z,15.35
2017-11-06T07:22:06.437Z,12.55
2017-11-06T07:24:33.988Z,15.63
2017-11-06T07:27:02.198Z,12.32
2017-11-06T07:29:30.027Z,12.98
2017-11-06T07:31:58.031Z,11.75
2017-11-06T07:34:25.528Z,10.60
2017-11-06T07:36:52.895Z,12.67
2017-11-06T07:39:20.476Z,13.33
2017-11-06T07:41:47.841Z,12.80
2017-11-06T07:44:15.851Z,12.70
2017-11-06T07:46:43.598Z,12.17
2017-11-06T07:49:11.122Z,13.20
2017-11-06T07:51:39.086Z,11.40
2017-11-06T07:54:06.640Z,10.27
2017-11-06T07:56:34.112Z,10.57
2017-11-06T07:59:02.040Z,11.47
2017-11-06T08:01:29.688Z,10.27
2017-11-06T08:03:57.862Z,10.10
2017-11-06T08:06:26.137Z,9.70
2017-11-06T08:08:53.773Z,10.87
2017-11-06T08:11:21.354Z,15.93
2017-11-06T08:13:49.657Z,11.10
2017-11-06T08:16:16.735Z,12.07
2017-11-06T08:18:44.394Z,13.73
2017-11-06T08:21:14.163Z,13.07
2017-11-06T08:23:42.728Z,12.30
2017-11-06T08:26:10.509Z,14.17
2017-11-06T08:28:38.160Z,14.53
2017-11-06T08:31:09.100Z,14.10
2017-11-06T08:33:36.932Z,15.30
2017-11-06T08:36:05.055Z,14.60
2017-11-06T08:38:32.934Z,14.40
2017-11-06T08:41:00.529Z,14.13
2017-11-06T08:43:28.269Z,15.07
2017-11-06T08:45:55.713Z,17.33
2017-11-06T08:48:23.906Z,19.17
2017-11-06T08:50:51.352Z,26.90
2017-11-06T08:53:19.576Z,24.97
2017-11-06T08:55:46.997Z,19.40
2017-11-06T08:58:15.440Z,15.40
2017-11-06T09:00:43.962Z,16.17
2017-11-06T09:03:11.428Z,15.57
2017-11-06T09:05:39.296Z,14.10
2017-11-06T09:08:06.878Z,19.00
2017-11-06T09:10:35.423Z,19.27
2017-11-06T09:13:05.273Z,20.17
2017-11-06T09:15:33.442Z,19.27
2017-11-06T09:18:02.576Z,17.50
2017-11-06T09:20:30.587Z,15.93
2017-11-06T09:22:58.567Z,15.60
2017-11-06T09:25:27.068Z,14.10
2017-11-06T09:27:54.734Z,13.93
2017-11-06T09:30:22.866Z,15.87
2017-11-06T09:32:51.020Z,18.63
2017-11-06T09:35:19.318Z,18.90
2017-11-06T09:37:47.092Z,14.00
2017-11-06T09:40:14.964Z,15.90
2017-11-06T09:42:43.455Z,16.57
2017-11-06T09:45:11.541Z,18.23
2017-11-06T09:47:40.214Z,15.87
2017-11-06T09:50:08.633Z,18.37
2017-11-06T09:52:37.369Z,17.17
2017-11-06T09:55:05.343Z,13.73
2017-11-06T09:57:33.117Z,16.33
2017-11-06T10:00:01.424Z,19.50
2017-11-06T10:02:29.497Z,20.73
2017-11-06T10:04:57.369Z,17.43
2017-11-06T10:07:25.289Z,16.30
2017-11-06T10:09:53.477Z,20.47
2017-11-06T10:12:22.434Z,15.20
2017-11-06T10:14:50.555Z,14.27
2017-11-06T10:17:18.840Z,16.27
2017-11-06T10:19:46.385Z,15.97
2017-11-06T10:22:14.851Z,18.40
2017-11-06T10:24:43.484Z,17.37
2017-11-06T10:27:11.121Z,20.47
2017-11-06T10:29:39.820Z,15.03
2017-11-06T10:32:07.709Z,15.17
2017-11-06T10:34:35.915Z,16.23
2017-11-06T10:37:03.133Z,15.97
2017-11-06T10:39:31.193Z,19.20
2017-11-06T10:41:59.329Z,18.10
2017-11-06T10:44:27.381Z,16.47
2017-11-06T10:46:55.503Z,20.40
2017-11-06T10:49:23.191Z,16.20
2017-11-06T10:51:50.411Z,18.93
2017-11-06T10:54:19.702Z,18.60
2017-11-06T10:56:47.516Z,14.80
2017-11-06T10:59:15.277Z,15.90
2017-11-06T11:01:43.838Z,19.80
2017-11-06T11:04:11.952Z,15.07
2017-11-06T11:06:40.500Z,17.90
2017-11-06T11:09:08.335Z,18.03
2017-11-06T11:11:36.157Z,16.73
2017-11-06T11:14:03.391Z,18.27
2017-11-06T11:16:31.558Z,17.60
2017-11-06T11:19:00.470Z,17.87
2017-11-06T11:21:28.927Z,17.20
2017-11-06T11:23:57.691Z,15.33
2017-11-06T11:26:26.595Z,13.70
2017-11-06T11:28:55.089Z,13.93
2017-11-06T11:31:23.855Z,17.23
2017-11-06T11:33:51.185Z,13.20
2017-11-06T11:36:19.497Z,10.70
2017-11-06T11:38:47.610Z,9.53
2017-11-06T11:41:16.176Z,10.50
2017-11-06T11:43:44.289Z,12.00
2017-11-06T11:46:11.516Z,9.53
2017-11-06T11:48:39.677Z,11.23
2017-11-06T11:51:07.782Z,12.90
2017-11-06T11:53:35.830Z,9.93
2017-11-06T11:56:04.487Z,11.90
2017-11-06T11:58:32.014Z,8.30
2017-11-06T12:00:59.434Z,10.03
2017-11-06T12:03:26.926Z,9.30
2017-11-06T12:05:54.332Z,9.77
2017-11-06T12:08:21.797Z,10.47
2017-11-06T12:10:49.257Z,8.43
2017-11-06T12:13:16.648Z,9.87
2017-11-06T12:15:44.198Z,10.93
2017-11-06T12:18:11.590Z,10.93
2017-11-06T12:20:39.050Z,10.60
2017-11-06T12:23:06.445Z,9.67
2017-11-06T12:25:34.308Z,8.23
2017-11-06T12:28:03.219Z,9.60
2017-11-06T12:30:31.872Z,9.60
2017-11-06T12:32:59.792Z,8.23
2017-11-06T12:35:28.626Z,8.70
2017-11-06T12:37:56.730Z,8.87
2017-11-06T12:40:24.671Z,9.07
2017-11-06T12:42:52.254Z,8.97
2017-11-06T12:45:20.359Z,10.10
2017-11-06T12:47:48.066Z,8.57
2017-11-06T12:50:16.983Z,10.00
2017-11-06T12:52:44.664Z,10.33
2017-11-06T12:55:12.511Z,12.00
2017-11-06T12:57:40.495Z,8.00
2017-11-06T13:00:09.024Z,9.10
2017-11-06T13:02:38.082Z,8.43
2017-11-06T13:05:06.730Z,7.00
2017-11-06T13:07:34.872Z,7.97
2017-11-06T13:10:01.822Z,7.00
2017-11-06T13:12:29.163Z,7.93
2017-11-06T13:14:57.030Z,7.33
2017-11-06T13:17:27.345Z,8.67
2017-11-06T13:19:54.771Z,8.33
2017-11-06T13:22:23.137Z,6.60
2017-11-06T13:24:52.133Z,5.90
2017-11-06T13:27:20.022Z,13.27
2017-11-06T13:29:48.237Z,7.50
2017-11-06T13:32:17.008Z,7.20
2017-11-06T13:34:45.172Z,4.93
2017-11-06T13:37:13.525Z,6.67
2017-11-06T13:39:41.482Z,6.63
2017-11-06T13:42:10.483Z,8.40
2017-11-06T13:44:37.646Z,8.50
2017-11-06T13:47:06.083Z,6.70
2017-11-06T13:49:34.332Z,6.50
2017-11-06T13:52:02.437Z,6.70
2017-11-06T13:54:30.273Z,8.37
2017-11-06T13:56:57.795Z,10.50
2017-11-06T13:59:24.889Z,6.70
2017-11-06T14:01:52.340Z,8.53
2017-11-06T14:04:19.777Z,8.20
2017-11-06T14:06:47.969Z,6.50
2017-11-06T14:09:15.526Z,7.03
2017-11-06T14:11:42.954Z,7.13
2017-11-06T14:14:11.311Z,7.90
2017-11-06T14:16:39.632Z,6.97
2017-11-06T14:19:07.028Z,8.33
2017-11-06T14:21:34.589Z,8.00
2017-11-06T14:24:02.086Z,7.00
2017-11-06T14:26:29.878Z,8.30
2017-11-06T14:28:57.414Z,11.07
2017-11-06T14:31:25.689Z,6.43
2017-11-06T14:33:54.173Z,7.97
2017-11-06T14:36:22.212Z,5.90
2017-11-06T14:38:50.876Z,12.00
2017-11-06T14:41:19.098Z,6.97
2017-11-06T14:43:46.509Z,7.57
2017-11-06T14:46:14.509Z,7.40
2017-11-06T14:48:42.918Z,7.50
2017-11-06T14:51:11.082Z,8.13
2017-11-06T14:53:39.395Z,8.80
2017-11-06T14:56:08.485Z,6.87
2017-11-06T14:58:35.961Z,8.37
2017-11-06T15:01:08.577Z,7.30
2017-11-06T15:03:39.086Z,5.97
2017-11-06T15:06:07.664Z,7.40
2017-11-06T15:08:36.429Z,5.10
2017-11-06T15:11:05.602Z,4.27
2017-11-06T15:13:36.173Z,4.10
2017-11-06T15:16:06.291Z,3.63
2017-11-06T15:18:34.906Z,3.43
2017-11-06T15:21:08.074Z,2.70
2017-11-06T15:23:37.245Z,4.20
2017-11-06T15:26:15.724Z,2.60
2017-11-06T15:28:47.374Z,4.50
2017-11-06T15:31:15.648Z,4.40
2017-11-06T15:33:44.224Z,5.70
2017-11-06T15:36:11.765Z,6.80
2017-11-06T15:38:39.736Z,4.43
2017-11-06T15:41:07.423Z,4.97
2017-11-06T15:43:35.524Z,4.37
2017-11-06T15:46:05.376Z,5.23
2017-11-06T15:48:33.725Z,5.73
2017-11-06T15:51:05.312Z,6.80
2017-11-06T15:53:33.979Z,10.93
2017-11-06T15:56:04.507Z,8.48
2017-11-06T15:58:33.201Z,9.95
2017-11-06T16:01:01.191Z,10.30
2017-11-06T16:03:29.190Z,9.33
2017-11-06T16:05:56.637Z,7.80
2017-11-06T16:08:25.355Z,7.70
2017-11-06T16:10:53.203Z,7.50
2017-11-06T16:13:21.710Z,6.50
2017-11-06T16:15:53.727Z,6.50
2017-11-06T16:18:25.340Z,5.60
2017-11-06T16:20:56.582Z,4.83
2017-11-06T16:23:25.821Z,6.07
2017-11-06T16:25:55.112Z,9.10
2017-11-06T16:28:23.646Z,10.57
2017-11-06T16:30:51.315Z,9.90
2017-11-06T16:33:21.040Z,10.93
2017-11-06T16:35:50.927Z,11.88
2017-11-06T16:38:18.874Z,8.88
2017-11-06T16:40:47.276Z,7.65
2017-11-06T16:43:15.614Z,5.90
2017-11-06T16:45:43.837Z,5.53
2017-11-06T16:48:14.397Z,8.15
2017-11-06T16:50:42.790Z,9.00
2017-11-06T16:53:10.468Z,10.63
2017-11-06T16:55:39.975Z,16.35
2017-11-06T16:58:07.181Z,19.62
2017-11-06T17:00:35.759Z,15.80
2017-11-06T17:03:04.778Z,17.15
2017-11-06T17:05:33.522Z,14.30
2017-11-06T17:08:01.975Z,10.00
2017-11-06T17:10:31.662Z,13.43
2017-11-06T17:13:04.534Z,15.10
2017-11-06T17:15:33.592Z,16.45
2017-11-06T17:18:02.141Z,28.42
2017-11-06T17:20:32.946Z,30.83
2017-11-06T17:23:08.275Z,40.80
2017-11-06T17:25:36.596Z,42.90
2017-11-06T17:28:04.076Z,28.87
2017-11-06T17:30:33.016Z,26.87
2017-11-06T17:33:01.850Z,30.35
2017-11-06T17:35:29.852Z,33.90
2017-11-06T17:37:58.644Z,23.70
2017-11-06T17:40:32.481Z,19.03
2017-11-06T17:43:04.211Z,21.70
2017-11-06T17:45:34.825Z,25.80
2017-11-06T17:48:02.811Z,16.35
2017-11-06T17:50:42.740Z,13.85
2017-11-06T17:53:12.359Z,10.13
2017-11-06T17:55:41.698Z,9.60
2017-11-06T17:58:10.364Z,11.82
2017-11-06T18:00:38.814Z,7.35
2017-11-06T18:03:06.488Z,8.90
2017-11-06T18:05:34.741Z,6.85
2017-11-06T18:08:03.175Z,6.00
2017-11-06T18:10:31.746Z,5.93
2017-11-06T18:12:59.486Z,6.85
2017-11-06T18:15:27.595Z,8.82
2017-11-06T18:17:56.574Z,6.37
2017-11-06T18:20:26.144Z,14.32
2017-11-06T18:22:55.051Z,6.85
2017-11-06T18:25:23.178Z,10.25
2017-11-06T18:27:51.014Z,11.88
2017-11-06T18:30:19.210Z,11.50
2017-11-06T18:32:47.472Z,8.93
2017-11-06T18:35:16.531Z,7.65
2017-11-06T18:37:44.598Z,10.82
2017-11-06T18:40:13.116Z,7.53
2017-11-06T18:42:41.367Z,9.93
2017-11-06T18:45:09.972Z,8.30
2017-11-06T18:47:37.813Z,14.45
2017-11-06T18:50:06.277Z,8.75
2017-11-06T18:52:33.635Z,8.10
2017-11-06T18:55:02.438Z,9.45
2017-11-06T18:57:29.965Z,10.32
2017-11-06T18:59:57.861Z,11.18
2017-11-06T19:02:26.358Z,12.93
2017-11-06T19:04:54.836Z,14.60
2017-11-06T19:07:23.032Z,15.05
2017-11-06T19:09:50.771Z,13.70
2017-11-06T19:12:18.454Z,14.13
2017-11-06T19:14:47.553Z,16.12
2017-11-06T19:17:15.602Z,16.67
2017-11-06T19:19:44.481Z,21.10
2017-11-06T19:22:12.700Z,15.32
2017-11-06T19:24:40.875Z,15.95
2017-11-06T19:27:09.153Z,14.87
2017-11-06T19:29:37.447Z,16.48
2017-11-06T19:32:05.111Z,9.13
2017-11-06T19:34:33.026Z,9.45
2017-11-06T19:37:01.654Z,6.53
2017-11-06T19:39:29.730Z,6.65
2017-11-06T19:41:59.303Z,6.80
2017-11-06T19:44:28.016Z,6.70
2017-11-06T19:46:55.640Z,6.78
2017-11-06T19:49:24.029Z,6.50
2017-11-06T19:51:53.028Z,7.50
2017-11-06T19:54:21.239Z,8.23
2017-11-06T19:56:50.741Z,8.88
2017-11-06T19:59:21.922Z,10.65
2017-11-06T20:01:52.451Z,10.60
2017-11-06T20:04:23.444Z,11.10
2017-11-06T20:06:55.097Z,10.43
2017-11-06T20:09:23.309Z,11.57
2017-11-06T20:11:56.009Z,13.10
2017-11-06T20:14:24.633Z,12.43
2017-11-06T20:16:52.190Z,11.80
2017-11-06T20:19:31.080Z,9.95
2017-11-06T20:22:10.075Z,11.63
2017-11-06T20:24:43.581Z,10.57
2017-11-06T20:27:13.156Z,10.70
2017-11-06T20:29:41.540Z,10.57
2017-11-06T20:32:13.287Z,10.65
2017-11-06T20:34:42.729Z,11.02
2017-11-06T20:37:11.049Z,9.77
2017-11-06T20:39:44.922Z,10.25
2017-11-06T20:42:14.546Z,9.38
2017-11-06T20:44:44.845Z,10.23
2017-11-06T20:47:14.793Z,11.35
2017-11-06T20:49:46.911Z,9.75
2017-11-06T20:52:21.744Z,9.27
2017-11-06T20:54:54.454Z,11.88
2017-11-06T20:57:25.519Z,10.05
2017-11-06T20:59:52.875Z,9.63
2017-11-06T21:02:20.436Z,12.50
2017-11-06T21:04:48.115Z,13.15
2017-11-06T21:07:17.536Z,13.43
2017-11-06T21:09:47.173Z,10.50
2017-11-06T21:12:15.540Z,11.02
2017-11-06T21:14:44.280Z,10.73
2017-11-06T21:17:13.331Z,12.68
2017-11-06T21:19:41.956Z,11.55
2017-11-06T21:22:11.246Z,12.43
2017-11-06T21:24:43.040Z,12.68
2017-11-06T21:27:15.561Z,14.93
2017-11-06T21:29:56.122Z,14.50
2017-11-06T21:32:27.426Z,13.80
2017-11-06T21:34:56.934Z,14.30
2017-11-06T21:37:25.810Z,17.33
2017-11-06T21:39:54.536Z,15.90
2017-11-06T21:42:24.672Z,16.40
2017-11-06T21:44:53.799Z,14.75
2017-11-06T21:47:22.508Z,14.52
2017-11-06T21:49:51.629Z,14.65
2017-11-06T21:52:20.551Z,13.80
2017-11-06T21:54:51.158Z,17.02
2017-11-06T21:57:25.576Z,14.70
2017-11-06T21:59:56.342Z,14.60
2017-11-06T22:02:30.005Z,13.00
2017-11-06T22:05:02.856Z,14.60
2017-11-06T22:07:32.358Z,14.35
2017-11-06T22:09:59.389Z,16.33
2017-11-06T22:12:31.734Z,17.12
2017-11-06T22:15:03.790Z,14.38
2017-11-06T22:17:32.585Z,14.40
2017-11-06T22:20:01.774Z,14.80
2017-11-06T22:22:30.573Z,13.25
2017-11-06T22:24:59.506Z,13.25
2017-11-06T22:27:29.765Z,14.50
2017-11-06T22:30:00.013Z,15.18
2017-11-06T22:32:27.941Z,16.17
2017-11-06T22:34:56.440Z,14.35
2017-11-06T22:37:26.480Z,14.45
2017-11-06T22:39:53.799Z,13.75
2017-11-06T22:42:21.947Z,13.88
2017-11-06T22:44:49.300Z,12.35
2017-11-06T22:47:18.545Z,14.10
2017-11-06T22:49:45.684Z,18.02
2017-11-06T22:52:12.593Z,13.43
2017-11-06T22:54:39.675Z,13.35
2017-11-06T22:57:06.725Z,15.85
2017-11-06T22:59:33.688Z,17.15
2017-11-06T23:02:00.715Z,12.57
2017-11-06T23:04:27.655Z,14.00
2017-11-06T23:06:54.612Z,17.15
2017-11-06T23:09:21.589Z,12.50
2017-11-06T23:11:48.579Z,16.10
2017-11-06T23:14:16.235Z,13.20
2017-11-06T23:16:43.216Z,18.15
2017-11-06T23:19:10.210Z,14.35
2017-11-06T23:21:37.240Z,17.90
2017-11-06T23:24:04.158Z,13.68
2017-11-06T23:26:31.203Z,14.80
2017-11-06T23:28:58.082Z,15.27
2017-11-06T23:31:24.991Z,16.30
2017-11-06T23:33:52.049Z,16.70
2017-11-06T23:36:19.080Z,15.15
2017-11-06T23:38:46.097Z,16.73
2017-11-06T23:41:13.878Z,15.40
2017-11-06T23:43:40.973Z,16.27
2017-11-06T23:46:07.905Z,17.17
2017-11-06T23:48:34.773Z,17.85
2017-11-06T23:51:01.808Z,18.25
2017-11-06T23:53:28.816Z,13.40
2017-11-06T23:55:55.936Z,17.60
2017-11-06T23:58:22.836Z,20.23
